createdAt,value
2023-02-08T00:00:57.579Z,34.17
2023-02-08T00:03:29.242Z,32.88
2023-02-08T00:05:56.534Z,32.03
2023-02-08T00:08:23.446Z,30.30
2023-02-08T00:10:50.779Z,31.50
2023-02-08T00:13:17.969Z,29.50
2023-02-08T00:15:46.324Z,32.10
2023-02-08T00:18:14.128Z,30.60
2023-02-08T00:20:44.638Z,25.13
2023-02-08T00:23:13.228Z,32.15
2023-02-08T00:25:41.864Z,30.60
2023-02-08T00:28:13.351Z,27.85
2023-02-08T00:30:43.097Z,35.33
2023-02-08T00:33:10.609Z,30.65
2023-02-08T00:35:37.826Z,33.95
2023-02-08T00:38:04.899Z,29.73
2023-02-08T00:40:32.117Z,36.97
2023-02-08T00:42:58.992Z,31.05
2023-02-08T00:45:26.413Z,32.05
2023-02-08T00:47:53.273Z,30.45
2023-02-08T00:50:21.697Z,32.75
2023-02-08T00:52:48.672Z,27.08
2023-02-08T00:55:16.009Z,30.23
2023-02-08T00:57:43.161Z,29.52
2023-02-08T01:00:11.631Z,35.42
2023-02-08T01:02:39.409Z,31.45
2023-02-08T01:05:07.372Z,29.95
2023-02-08T01:07:39.850Z,31.02
2023-02-08T01:10:09.452Z,27.30
2023-02-08T01:12:36.504Z,31.85
2023-02-08T01:15:04.246Z,33.72
2023-02-08T01:17:31.601Z,30.92
2023-02-08T01:19:58.980Z,30.63
2023-02-08T01:22:25.946Z,34.88
2023-02-08T01:24:53.618Z,36.45
2023-02-08T01:27:20.537Z,34.78
2023-02-08T01:29:47.791Z,32.85
2023-02-08T01:32:14.765Z,35.00
2023-02-08T01:34:44.042Z,36.60
2023-02-08T01:37:11.086Z,36.78
2023-02-08T01:39:38.342Z,31.00
2023-02-08T01:42:05.389Z,33.53
2023-02-08T01:45:10.431Z,37.13
2023-02-08T01:47:37.482Z,33.13
2023-02-08T01:50:06.023Z,31.77
2023-02-08T01:52:33.398Z,38.95
2023-02-08T01:55:06.500Z,35.20
2023-02-08T01:57:33.512Z,37.10
2023-02-08T02:00:22.465Z,35.10
2023-02-08T02:02:55.808Z,31.13
2023-02-08T02:05:28.229Z,33.33
2023-02-08T02:07:57.749Z,37.65
2023-02-08T02:10:31.885Z,36.60
2023-02-08T02:13:04.256Z,29.98
2023-02-08T02:15:33.333Z,33.15
2023-02-08T02:18:01.538Z,35.28
2023-02-08T02:20:28.667Z,28.35
2023-02-08T02:23:31.507Z,36.83
2023-02-08T02:26:20.021Z,42.17
2023-02-08T02:28:58.873Z,36.90
2023-02-08T02:31:36.844Z,37.95
2023-02-08T02:34:13.952Z,34.75
2023-02-08T02:36:51.880Z,36.83
2023-02-08T02:39:50.181Z,38.33
2023-02-08T02:42:53.108Z,29.75
2023-02-08T02:45:29.770Z,32.85
2023-02-08T02:48:10.375Z,47.85
2023-02-08T02:50:45.437Z,33.33
2023-02-08T02:53:34.302Z,32.33
2023-02-08T02:56:09.352Z,33.25
2023-02-08T02:58:38.600Z,39.42
2023-02-08T03:01:05.569Z,37.40
2023-02-08T03:03:34.620Z,38.70
2023-02-08T03:06:06.475Z,35.20
2023-02-08T03:08:55.698Z,38.30
2023-02-08T03:11:27.838Z,33.20
2023-02-08T03:14:13.608Z,32.55
2023-02-08T03:17:03.404Z,31.92
2023-02-08T03:19:42.725Z,34.13
2023-02-08T03:22:28.439Z,40.45
2023-02-08T03:25:02.194Z,31.77
2023-02-08T03:27:58.663Z,40.78
2023-02-08T03:30:53.298Z,32.13
2023-02-08T03:33:36.025Z,33.80
2023-02-08T03:36:05.598Z,33.72
2023-02-08T03:38:37.979Z,38.08
2023-02-08T03:41:07.983Z,28.50
2023-02-08T03:43:42.765Z,32.50
2023-02-08T03:46:16.286Z,32.75
2023-02-08T03:48:49.419Z,34.00
2023-02-08T03:51:17.799Z,34.58
2023-02-08T03:53:46.949Z,35.28
2023-02-08T03:56:35.982Z,36.00
2023-02-08T03:59:07.540Z,31.90
2023-02-08T04:01:58.442Z,40.20
2023-02-08T04:04:28.598Z,37.35
2023-02-08T04:06:56.413Z,33.10
2023-02-08T04:09:23.431Z,35.15
2023-02-08T04:11:50.923Z,35.72
2023-02-08T04:14:17.863Z,36.65
2023-02-08T04:16:45.279Z,35.28
2023-02-08T04:19:12.508Z,36.67
2023-02-08T04:21:39.725Z,37.92
2023-02-08T04:24:06.878Z,42.38
2023-02-08T04:26:34.980Z,35.30
2023-02-08T04:29:01.921Z,38.85
2023-02-08T04:31:29.225Z,33.92
2023-02-08T04:33:56.188Z,34.95
2023-02-08T04:36:23.335Z,39.50
2023-02-08T04:38:50.342Z,35.45
2023-02-08T04:41:17.729Z,38.25
2023-02-08T04:43:44.668Z,40.72
2023-02-08T04:46:12.004Z,43.42
2023-02-08T04:48:39.198Z,39.47
2023-02-08T04:51:06.589Z,39.95
2023-02-08T04:53:33.480Z,43.15
2023-02-08T04:56:00.871Z,41.88
2023-02-08T04:58:27.824Z,41.58
2023-02-08T05:00:54.969Z,38.00
2023-02-08T05:03:21.968Z,44.30
2023-02-08T05:05:57.637Z,39.53
2023-02-08T05:08:24.725Z,39.28
2023-02-08T05:10:52.056Z,43.95
2023-02-08T05:13:18.957Z,47.05
2023-02-08T05:15:46.202Z,48.47
2023-02-08T05:18:13.354Z,42.97
2023-02-08T05:20:40.900Z,49.00
2023-02-08T05:23:07.941Z,45.10
2023-02-08T05:25:35.211Z,43.10
2023-02-08T05:28:02.144Z,40.78
2023-02-08T05:30:29.337Z,44.17
2023-02-08T05:32:56.268Z,47.83
2023-02-08T05:35:23.494Z,49.25
2023-02-08T05:37:50.364Z,53.00
2023-02-08T05:40:17.570Z,46.40
2023-02-08T05:42:44.642Z,53.97
2023-02-08T05:45:12.023Z,49.13
2023-02-08T05:47:39.045Z,53.58
2023-02-08T05:50:06.814Z,51.33
2023-02-08T05:52:33.813Z,43.55
2023-02-08T05:55:01.056Z,47.38
2023-02-08T05:57:30.791Z,44.80
2023-02-08T05:59:58.433Z,47.28
2023-02-08T06:02:25.461Z,50.72
2023-02-08T06:04:52.761Z,50.40
2023-02-08T06:07:19.631Z,50.60
2023-02-08T06:09:48.522Z,56.97
2023-02-08T06:12:15.713Z,51.88
2023-02-08T06:14:42.877Z,52.47
2023-02-08T06:17:09.785Z,56.60
2023-02-08T06:19:36.955Z,47.83
2023-02-08T06:22:03.903Z,53.95
2023-02-08T06:24:31.213Z,50.58
2023-02-08T06:26:58.127Z,49.05
2023-02-08T06:29:25.392Z,52.60
2023-02-08T06:31:52.356Z,51.92
2023-02-08T06:34:19.641Z,50.33
2023-02-08T06:36:47.054Z,52.22
2023-02-08T06:39:14.552Z,50.28
2023-02-08T06:41:41.508Z,61.58
2023-02-08T06:44:08.945Z,54.58
2023-02-08T06:46:36.143Z,56.92
2023-02-08T06:49:03.606Z,56.42
2023-02-08T06:51:30.597Z,53.22
2023-02-08T06:53:57.983Z,55.67
2023-02-08T06:56:25.127Z,54.38
2023-02-08T06:58:52.361Z,53.83
2023-02-08T07:01:19.353Z,56.90
2023-02-08T07:03:46.774Z,56.65
2023-02-08T07:06:16.507Z,54.03
2023-02-08T07:08:44.052Z,51.65
2023-02-08T07:11:13.542Z,48.20
2023-02-08T07:13:41.077Z,51.22
2023-02-08T07:16:09.847Z,49.35
2023-02-08T07:18:37.509Z,44.83
2023-02-08T07:21:05.282Z,48.65
2023-02-08T07:23:33.011Z,44.83
2023-02-08T07:26:02.608Z,42.25
2023-02-08T07:28:30.477Z,44.38
2023-02-08T07:30:57.645Z,45.03
2023-02-08T07:33:25.554Z,42.10
2023-02-08T07:35:52.507Z,44.55
2023-02-08T07:38:20.827Z,40.40
2023-02-08T07:40:48.153Z,43.38
2023-02-08T07:43:15.392Z,52.10
2023-02-08T07:45:52.487Z,45.40
2023-02-08T07:48:19.919Z,42.30
2023-02-08T07:50:46.831Z,42.90
2023-02-08T07:53:14.048Z,42.08
2023-02-08T07:55:40.998Z,40.95
2023-02-08T07:58:08.149Z,40.25
2023-02-08T08:00:35.092Z,41.60
2023-02-08T08:03:02.659Z,39.15
2023-02-08T08:05:29.704Z,40.72
2023-02-08T08:07:57.167Z,39.05
2023-02-08T08:10:24.375Z,36.97
2023-02-08T08:12:51.757Z,37.03
2023-02-08T08:15:18.772Z,35.75
2023-02-08T08:17:46.275Z,35.85
2023-02-08T08:20:13.139Z,45.30
2023-02-08T08:22:40.389Z,38.42
2023-02-08T08:25:07.534Z,39.10
2023-02-08T08:27:35.260Z,33.78
2023-02-08T08:30:02.362Z,37.53
2023-02-08T08:32:29.696Z,33.28
2023-02-08T08:34:56.646Z,39.90
2023-02-08T08:37:23.855Z,37.25
2023-02-08T08:39:50.918Z,37.67
2023-02-08T08:42:18.391Z,29.17
2023-02-08T08:44:45.648Z,38.17
2023-02-08T08:47:13.611Z,37.35
2023-02-08T08:49:40.641Z,36.75
2023-02-08T08:52:08.421Z,37.85
2023-02-08T08:54:35.626Z,37.17
2023-02-08T08:57:03.848Z,34.45
2023-02-08T08:59:31.220Z,33.53
2023-02-08T09:01:58.597Z,35.78
2023-02-08T09:04:26.032Z,34.42
2023-02-08T09:06:54.476Z,40.75
2023-02-08T09:09:22.666Z,35.40
2023-02-08T09:11:50.464Z,42.60
2023-02-08T09:14:17.426Z,35.95
2023-02-08T09:16:48.105Z,38.05
2023-02-08T09:19:16.294Z,35.90
2023-02-08T09:21:43.761Z,36.75
2023-02-08T09:24:10.751Z,30.92
2023-02-08T09:26:38.900Z,36.17
2023-02-08T09:29:06.811Z,33.33
2023-02-08T09:31:39.560Z,31.77
2023-02-08T09:34:07.630Z,33.17
2023-02-08T09:36:38.315Z,31.45
2023-02-08T09:39:10.822Z,31.33
2023-02-08T09:41:52.900Z,35.05
2023-02-08T09:44:47.298Z,32.60
2023-02-08T09:47:34.655Z,28.42
2023-02-08T09:50:18.695Z,23.98
2023-02-08T09:52:54.518Z,27.20
2023-02-08T09:55:58.565Z,26.13
2023-02-08T09:58:39.326Z,21.17
2023-02-08T10:01:21.075Z,21.77
2023-02-08T10:03:52.394Z,26.95
2023-02-08T10:08:51.273Z,20.20
2023-02-08T10:11:43.442Z,21.80
2023-02-08T10:14:44.035Z,19.98
2023-02-08T10:17:46.724Z,16.77
2023-02-08T10:20:41.062Z,19.17
2023-02-08T10:23:22.525Z,19.00
2023-02-08T10:26:08.355Z,18.98
2023-02-08T10:28:41.322Z,15.30
2023-02-08T10:31:17.766Z,17.70
2023-02-08T10:34:12.816Z,16.33
2023-02-08T10:36:42.157Z,21.90
2023-02-08T10:39:26.637Z,18.45
2023-02-08T10:41:54.612Z,17.60
2023-02-08T10:44:36.696Z,13.75
2023-02-08T10:47:35.588Z,11.20
2023-02-08T10:50:12.714Z,14.95
2023-02-08T10:52:40.124Z,10.32
2023-02-08T10:55:16.660Z,16.73
2023-02-08T10:57:50.292Z,8.43
2023-02-08T11:00:25.308Z,13.55
2023-02-08T11:02:53.758Z,11.18
2023-02-08T11:05:31.351Z,9.60
2023-02-08T11:08:12.279Z,8.13
2023-02-08T11:10:41.127Z,8.60
2023-02-08T11:13:15.157Z,7.00
2023-02-08T11:15:56.107Z,11.02
2023-02-08T11:18:40.002Z,10.23
2023-02-08T11:21:29.551Z,9.75
2023-02-08T11:23:58.134Z,7.75
2023-02-08T11:26:30.992Z,8.30
2023-02-08T11:29:23.281Z,9.43
2023-02-08T11:31:53.842Z,19.70
2023-02-08T11:34:30.820Z,7.43
2023-02-08T11:36:59.841Z,8.57
2023-02-08T11:39:34.856Z,9.77
2023-02-08T11:42:03.141Z,12.55
2023-02-08T11:44:43.720Z,10.85
2023-02-08T11:47:16.722Z,13.98
2023-02-08T11:50:02.112Z,12.57
2023-02-08T11:52:42.584Z,12.80
2023-02-08T11:55:31.173Z,14.20
2023-02-08T11:58:06.179Z,11.13
2023-02-08T12:00:36.010Z,14.85
2023-02-08T12:03:18.284Z,16.63
2023-02-08T12:06:03.615Z,14.07
2023-02-08T12:08:40.277Z,11.55
2023-02-08T12:11:17.268Z,12.48
2023-02-08T12:14:27.703Z,14.02
2023-02-08T12:17:09.357Z,12.30
2023-02-08T12:20:05.284Z,13.93
2023-02-08T12:22:39.722Z,13.55
2023-02-08T12:25:27.768Z,10.35
2023-02-08T12:28:37.866Z,10.07
2023-02-08T12:31:23.546Z,8.45
2023-02-08T12:34:02.030Z,9.55
2023-02-08T12:37:26.374Z,9.30
2023-02-08T12:40:48.660Z,9.55
2023-02-08T12:43:22.720Z,11.35
2023-02-08T12:45:56.866Z,10.98
2023-02-08T12:48:56.783Z,21.95
2023-02-08T12:54:44.930Z,12.70
2023-02-08T12:57:16.106Z,10.38
2023-02-08T12:59:59.440Z,12.05
2023-02-08T13:02:44.608Z,17.55
2023-02-08T13:05:22.541Z,11.50
2023-02-08T13:08:01.880Z,18.45
2023-02-08T13:10:39.533Z,16.75
2023-02-08T13:13:16.503Z,9.30
2023-02-08T13:15:53.098Z,10.15
2023-02-08T13:18:25.546Z,7.30
2023-02-08T13:20:55.556Z,9.48
2023-02-08T13:23:25.258Z,9.13
2023-02-08T13:25:57.351Z,9.65
2023-02-08T13:28:26.175Z,10.18
2023-02-08T13:31:20.255Z,9.40
2023-02-08T13:34:01.582Z,17.42
2023-02-08T13:36:34.032Z,8.45
2023-02-08T13:39:05.800Z,9.88
2023-02-08T13:41:34.836Z,9.45
2023-02-08T13:44:09.038Z,13.32
2023-02-08T13:46:48.126Z,12.48
2023-02-08T13:49:43.723Z,15.90
2023-02-08T13:52:12.893Z,11.00
2023-02-08T13:54:40.465Z,15.88
2023-02-08T13:58:00.439Z,15.70
2023-02-08T14:00:37.814Z,12.77
2023-02-08T14:03:07.949Z,10.63
2023-02-08T14:06:01.370Z,11.73
2023-02-08T14:08:40.685Z,11.55
2023-02-08T14:11:26.985Z,12.05
2023-02-08T14:14:21.286Z,13.60
2023-02-08T14:17:03.986Z,14.68
2023-02-08T14:19:33.760Z,13.07
2023-02-08T14:22:14.464Z,17.98
2023-02-08T14:24:49.817Z,14.48
2023-02-08T14:27:20.541Z,11.73
2023-02-08T14:30:04.437Z,12.75
2023-02-08T14:32:35.722Z,15.35
2023-02-08T14:35:11.689Z,12.43
2023-02-08T14:37:40.163Z,12.38
2023-02-08T14:40:25.103Z,10.60
2023-02-08T14:43:01.664Z,12.73
2023-02-08T14:45:33.224Z,11.57
2023-02-08T14:48:30.428Z,13.02
2023-02-08T14:51:06.767Z,14.57
2023-02-08T14:53:52.839Z,12.73
2023-02-08T14:56:26.017Z,13.95
2023-02-08T14:59:00.868Z,12.38
2023-02-08T15:01:28.528Z,12.63
2023-02-08T15:04:01.885Z,12.88
2023-02-08T15:06:38.624Z,12.73
2023-02-08T15:09:19.247Z,15.63
2023-02-08T15:12:04.337Z,11.98
2023-02-08T15:14:36.215Z,13.57
2023-02-08T15:19:40.055Z,13.63
2023-02-08T15:22:31.236Z,16.65
2023-02-08T15:25:02.451Z,16.90
2023-02-08T15:27:34.800Z,14.38
2023-02-08T15:30:02.375Z,18.67
2023-02-08T15:32:30.802Z,15.75
2023-02-08T15:35:02.654Z,16.25
2023-02-08T15:37:34.779Z,17.77
2023-02-08T15:40:04.949Z,19.08
2023-02-08T15:42:35.913Z,16.20
2023-02-08T15:45:04.666Z,17.20
2023-02-08T15:47:37.961Z,15.25
2023-02-08T15:50:08.556Z,17.20
2023-02-08T15:52:37.702Z,21.13
2023-02-08T15:55:10.529Z,18.10
2023-02-08T15:58:02.900Z,18.33
2023-02-08T16:00:33.253Z,17.40
2023-02-08T16:03:08.873Z,21.42
2023-02-08T16:05:38.206Z,20.33
2023-02-08T16:08:06.852Z,20.42
2023-02-08T16:10:36.915Z,15.63
2023-02-08T16:13:31.763Z,17.52
2023-02-08T16:16:33.639Z,20.67
2023-02-08T16:19:04.847Z,19.73
2023-02-08T16:21:39.343Z,18.60
2023-02-08T16:24:09.029Z,22.23
2023-02-08T16:26:59.847Z,26.05
2023-02-08T16:29:46.499Z,20.77
2023-02-08T16:32:31.835Z,24.13
2023-02-08T16:35:01.558Z,21.77
2023-02-08T16:37:35.423Z,23.08
2023-02-08T16:40:24.687Z,18.95
2023-02-08T16:42:52.758Z,25.38
2023-02-08T16:45:22.608Z,25.02
2023-02-08T16:48:04.252Z,20.15
2023-02-08T16:50:41.007Z,22.77
2023-02-08T16:53:12.546Z,24.08
2023-02-08T16:55:39.859Z,20.95
2023-02-08T16:58:15.875Z,22.40
2023-02-08T17:00:43.991Z,21.15
2023-02-08T17:03:12.145Z,18.70
2023-02-08T17:05:41.180Z,19.95
2023-02-08T17:08:16.516Z,20.95
2023-02-08T17:10:44.551Z,17.95
2023-02-08T17:13:21.208Z,23.35
2023-02-08T17:15:50.769Z,20.67
2023-02-08T17:18:18.511Z,28.60
2023-02-08T17:20:46.186Z,23.15
2023-02-08T17:23:15.862Z,25.65
2023-02-08T17:25:43.835Z,20.15
2023-02-08T17:28:21.214Z,19.25
2023-02-08T17:30:50.329Z,21.85
2023-02-08T17:33:18.540Z,19.25
2023-02-08T17:35:47.822Z,26.55
2023-02-08T17:38:16.158Z,22.33
2023-02-08T17:40:44.505Z,23.83
2023-02-08T17:43:13.073Z,29.75
2023-02-08T17:45:42.469Z,19.25
2023-02-08T17:48:10.163Z,23.83
2023-02-08T17:50:37.155Z,22.15
2023-02-08T17:53:04.531Z,23.15
2023-02-08T17:55:31.720Z,26.92
2023-02-08T17:57:59.134Z,24.95
2023-02-08T18:00:26.585Z,21.65
2023-02-08T18:02:55.641Z,22.10
2023-02-08T18:05:26.065Z,28.45
2023-02-08T18:07:55.852Z,26.55
2023-02-08T18:10:24.942Z,30.55
2023-02-08T18:12:52.434Z,24.15
2023-02-08T18:15:21.688Z,26.95
2023-02-08T18:17:50.664Z,24.83
2023-02-08T18:20:18.530Z,26.10
2023-02-08T18:22:46.187Z,26.70
2023-02-08T18:25:14.540Z,25.98
2023-02-08T18:27:42.003Z,31.63
2023-02-08T18:30:10.974Z,28.48
2023-02-08T18:32:39.227Z,25.15
2023-02-08T18:35:08.862Z,26.80
2023-02-08T18:37:37.685Z,24.27
2023-02-08T18:40:06.883Z,28.77
2023-02-08T18:42:36.057Z,25.17
2023-02-08T18:45:05.160Z,31.50
2023-02-08T18:47:32.762Z,26.90
2023-02-08T18:49:59.702Z,28.33
2023-02-08T18:52:27.377Z,24.85
2023-02-08T18:54:54.496Z,29.17
2023-02-08T18:57:22.174Z,30.08
2023-02-08T18:59:49.573Z,24.90
2023-02-08T19:02:21.000Z,25.38
2023-02-08T19:07:16.397Z,28.65
2023-02-08T19:09:44.186Z,24.52
2023-02-08T19:12:15.555Z,33.35
2023-02-08T19:14:44.017Z,31.17
2023-02-08T19:17:14.369Z,36.80
2023-02-08T19:19:42.090Z,33.03
2023-02-08T19:22:09.698Z,33.35
2023-02-08T19:24:37.816Z,32.15
2023-02-08T19:27:05.612Z,34.03
2023-02-08T19:29:34.553Z,28.10
2023-02-08T19:32:02.202Z,33.65
2023-02-08T19:34:29.565Z,29.35
2023-02-08T19:36:56.820Z,33.97
2023-02-08T19:39:26.709Z,34.15
2023-02-08T19:41:54.687Z,28.23
2023-02-08T19:44:22.796Z,32.05
2023-02-08T19:46:55.054Z,31.63
2023-02-08T19:49:25.883Z,35.72
2023-02-08T19:54:21.345Z,28.23
2023-02-08T19:56:50.535Z,33.65
2023-02-08T19:59:26.535Z,39.95
2023-02-08T20:01:54.929Z,37.53
2023-02-08T20:04:22.383Z,40.08
2023-02-08T20:06:53.269Z,38.45
2023-02-08T20:09:20.751Z,45.70
2023-02-08T20:11:56.826Z,50.65
2023-02-08T20:14:25.214Z,43.10
2023-02-08T20:16:52.645Z,39.38
2023-02-08T20:19:19.732Z,42.22
2023-02-08T20:21:47.454Z,42.92
2023-02-08T20:24:14.806Z,43.92
2023-02-08T20:26:45.215Z,46.55
2023-02-08T20:29:13.664Z,38.67
2023-02-08T20:31:43.766Z,49.95
2023-02-08T20:34:13.775Z,44.78
2023-02-08T20:36:49.600Z,42.88
2023-02-08T20:39:20.773Z,38.38
2023-02-08T20:41:48.274Z,42.85
2023-02-08T20:44:18.157Z,38.58
2023-02-08T20:46:46.644Z,44.25
2023-02-08T20:49:15.412Z,39.70
2023-02-08T20:51:43.527Z,40.03
2023-02-08T20:54:11.241Z,44.58
2023-02-08T20:56:39.678Z,41.67
2023-02-08T20:59:08.856Z,42.50
2023-02-08T21:01:37.086Z,40.50
2023-02-08T21:04:05.114Z,41.97
2023-02-08T21:06:35.398Z,41.38
2023-02-08T21:09:08.579Z,38.97
2023-02-08T21:11:37.149Z,37.80
2023-02-08T21:14:05.477Z,40.92
2023-02-08T21:16:33.195Z,44.60
2023-02-08T21:19:01.096Z,44.90
2023-02-08T21:21:29.042Z,44.45
2023-02-08T21:23:57.925Z,46.72
2023-02-08T21:26:26.077Z,46.42
2023-02-08T21:28:57.010Z,50.08
2023-02-08T21:31:25.227Z,57.58
2023-02-08T21:33:53.025Z,51.83
2023-02-08T21:36:23.149Z,57.25
2023-02-08T21:38:51.373Z,61.22
2023-02-08T21:41:23.149Z,64.20
2023-02-08T21:43:51.354Z,69.25
2023-02-08T21:46:18.785Z,72.28
2023-02-08T21:49:04.847Z,65.63
2023-02-08T21:52:04.352Z,59.28
2023-02-08T21:54:42.852Z,66.95
2023-02-08T21:57:37.900Z,68.80
2023-02-08T22:00:08.206Z,67.93
2023-02-08T22:02:39.940Z,70.15
2023-02-08T22:05:25.878Z,62.53
2023-02-08T22:07:56.670Z,73.25
2023-02-08T22:10:27.548Z,69.70
2023-02-08T22:12:55.721Z,77.82
2023-02-08T22:15:24.560Z,76.10
2023-02-08T22:18:00.248Z,68.75
2023-02-08T22:20:28.472Z,80.15
2023-02-08T22:22:56.472Z,79.90
2023-02-08T22:25:23.691Z,79.30
2023-02-08T22:27:51.097Z,93.65
2023-02-08T22:30:21.826Z,87.72
2023-02-08T22:35:18.400Z,92.63
2023-02-08T22:37:45.606Z,93.82
2023-02-08T22:40:12.923Z,92.93
2023-02-08T22:42:41.236Z,89.38
2023-02-08T22:45:09.024Z,91.60
2023-02-08T22:47:36.743Z,83.60
2023-02-08T22:50:04.989Z,75.68
2023-02-08T22:52:34.421Z,76.32
2023-02-08T22:55:04.057Z,69.60
2023-02-08T22:57:33.066Z,78.90
2023-02-08T23:00:00.272Z,82.38
2023-02-08T23:02:28.082Z,60.45
2023-02-08T23:04:55.499Z,62.42
2023-02-08T23:07:23.022Z,54.97
2023-02-08T23:09:50.040Z,55.13
2023-02-08T23:12:17.592Z,59.35
2023-02-08T23:14:44.819Z,60.95
2023-02-08T23:17:12.128Z,51.83
2023-02-08T23:19:40.725Z,62.15
2023-02-08T23:22:09.043Z,54.20
2023-02-08T23:24:35.976Z,64.53
2023-02-08T23:27:03.325Z,60.55
2023-02-08T23:29:48.593Z,51.92
2023-02-08T23:32:16.198Z,60.80
2023-02-08T23:34:43.070Z,48.58
2023-02-08T23:37:10.539Z,59.78
2023-02-08T23:39:37.396Z,58.20
2023-02-08T23:42:05.818Z,61.80
2023-02-08T23:44:32.941Z,57.28
2023-02-08T23:47:00.311Z,60.22
2023-02-08T23:49:27.195Z,51.83
2023-02-08T23:51:54.738Z,62.55
2023-02-08T23:54:21.686Z,60.15
2023-02-08T23:56:48.873Z,61.13
2023-02-08T23:59:16.761Z,60.42
